createdAt,value
2022-09-06T00:04:18.038Z,70.30
2022-09-06T00:08:52.178Z,70.60
2022-09-06T00:13:26.313Z,70.60
2022-09-06T00:18:03.289Z,70.50
2022-09-06T00:22:37.824Z,70.60
2022-09-06T00:27:11.867Z,70.50
2022-09-06T00:31:45.948Z,70.60
2022-09-06T00:36:22.453Z,71.00
2022-09-06T00:40:56.510Z,70.90
2022-09-06T00:45:31.818Z,71.00
2022-09-06T00:50:06.859Z,71.20
2022-09-06T00:54:43.440Z,71.50
2022-09-06T00:59:17.903Z,71.60
2022-09-06T01:03:51.945Z,71.90
2022-09-06T01:08:40.429Z,72.20
2022-09-06T01:13:27.310Z,72.50
2022-09-06T01:18:11.903Z,72.60
2022-09-06T01:23:08.126Z,72.60
2022-09-06T01:28:22.827Z,72.80
2022-09-06T01:33:01.767Z,73.10
2022-09-06T01:37:36.108Z,73.10
2022-09-06T01:42:14.408Z,73.10
2022-09-06T01:46:57.014Z,73.00
2022-09-06T01:51:38.770Z,73.00
2022-09-06T01:56:23.213Z,73.20
2022-09-06T02:01:04.420Z,73.60
2022-09-06T02:05:47.034Z,74.20
2022-09-06T02:10:28.337Z,74.50
2022-09-06T02:15:06.803Z,75.00
2022-09-06T02:19:47.254Z,75.30
2022-09-06T02:24:27.344Z,75.40
2022-09-06T02:29:01.510Z,75.70
2022-09-06T02:33:36.031Z,76.00
2022-09-06T02:38:10.518Z,76.10
2022-09-06T02:42:45.939Z,76.30
2022-09-06T02:47:19.950Z,76.30
2022-09-06T02:51:53.938Z,76.60
2022-09-06T02:56:27.969Z,76.80
2022-09-06T03:01:03.420Z,77.00
2022-09-06T03:05:37.613Z,77.10
2022-09-06T03:10:11.652Z,77.10
2022-09-06T03:14:45.636Z,76.90
2022-09-06T03:19:21.683Z,77.00
2022-09-06T03:23:56.023Z,77.00
2022-09-06T03:28:30.083Z,77.20
2022-09-06T03:33:04.252Z,77.50
2022-09-06T03:37:39.675Z,77.80
2022-09-06T03:42:13.743Z,78.10
2022-09-06T03:46:47.728Z,78.20
2022-09-06T03:51:21.731Z,78.50
2022-09-06T03:55:58.658Z,78.70
2022-09-06T04:00:33.605Z,78.80
2022-09-06T04:05:08.380Z,78.80
2022-09-06T04:09:42.421Z,79.10
2022-09-06T04:14:17.813Z,79.30
2022-09-06T04:18:52.048Z,79.60
2022-09-06T04:23:28.222Z,79.90
2022-09-06T04:28:02.349Z,80.00
2022-09-06T04:32:37.769Z,80.10
2022-09-06T04:37:11.759Z,80.10
2022-09-06T04:41:45.858Z,80.00
2022-09-06T04:46:24.076Z,79.80
2022-09-06T04:50:59.491Z,79.70
2022-09-06T04:55:34.000Z,78.80
2022-09-06T05:00:09.433Z,78.40
2022-09-06T05:04:43.468Z,77.80
2022-09-06T05:09:18.871Z,76.90
2022-09-06T05:13:52.934Z,76.70
2022-09-06T05:18:27.060Z,77.00
2022-09-06T05:23:01.605Z,77.00
2022-09-06T05:27:37.701Z,77.10
2022-09-06T05:32:11.907Z,77.10
2022-09-06T05:36:46.197Z,76.90
2022-09-06T05:41:20.573Z,77.00
2022-09-06T05:45:56.489Z,77.30
2022-09-06T05:50:30.632Z,77.80
2022-09-06T05:55:05.425Z,78.10
2022-09-06T05:59:39.479Z,78.10
2022-09-06T06:04:15.086Z,78.00
2022-09-06T06:08:49.846Z,78.00
2022-09-06T06:13:23.888Z,77.70
2022-09-06T06:17:57.999Z,77.60
2022-09-06T06:22:33.375Z,77.70
2022-09-06T06:27:07.535Z,77.70
2022-09-06T06:31:42.001Z,77.90
2022-09-06T06:36:24.450Z,78.30
2022-09-06T06:41:03.298Z,78.50
2022-09-06T06:45:40.583Z,78.30
2022-09-06T06:50:14.743Z,78.00
2022-09-06T06:54:49.154Z,77.20
2022-09-06T06:59:24.746Z,76.60
2022-09-06T07:03:59.246Z,75.90
2022-09-06T07:08:33.419Z,75.90
2022-09-06T07:13:07.403Z,75.80
2022-09-06T07:17:44.182Z,75.40
2022-09-06T07:22:18.215Z,74.50
2022-09-06T07:36:41.614Z,73.40
2022-09-06T07:41:15.680Z,72.70
2022-09-06T07:45:49.923Z,71.80
2022-09-06T07:55:19.970Z,70.50
2022-09-06T07:59:54.037Z,70.20
2022-09-06T08:04:28.107Z,69.60
2022-09-06T08:09:02.747Z,69.60
2022-09-06T08:13:38.587Z,68.10
2022-09-06T08:18:13.076Z,65.80
2022-09-06T08:22:47.102Z,65.10
2022-09-06T08:27:21.144Z,64.80
2022-09-06T08:31:56.649Z,65.00
2022-09-06T08:36:31.679Z,63.40
2022-09-06T08:41:11.471Z,61.50
2022-09-06T08:45:50.540Z,60.90
2022-09-06T08:50:30.174Z,58.20
2022-09-06T08:55:19.002Z,56.60
2022-09-06T08:59:58.039Z,56.60
2022-09-06T09:04:33.104Z,56.80
2022-09-06T09:09:11.409Z,57.10
2022-09-06T09:13:55.937Z,57.00
2022-09-06T09:18:35.922Z,54.70
2022-09-06T09:23:10.291Z,51.30
2022-09-06T09:27:46.551Z,48.30
2022-09-06T09:32:30.824Z,48.10
2022-09-06T09:42:12.572Z,47.80
2022-09-06T09:46:47.960Z,46.60
2022-09-06T09:51:27.405Z,45.90
2022-09-06T09:56:01.908Z,46.00
2022-09-06T10:00:39.623Z,45.30
2022-09-06T10:05:21.757Z,44.00
2022-09-06T10:10:00.936Z,43.30
2022-09-06T10:14:42.482Z,43.20
2022-09-06T10:19:25.440Z,42.80
2022-09-06T10:29:05.309Z,42.50
2022-09-06T10:33:52.020Z,41.60
2022-09-06T10:38:38.562Z,41.20
2022-09-06T10:43:18.937Z,41.30
2022-09-06T10:47:59.538Z,41.40
2022-09-06T10:52:36.891Z,40.90
2022-09-06T11:02:29.236Z,42.50
2022-09-06T11:07:11.530Z,44.50
2022-09-06T11:11:49.793Z,46.20
2022-09-06T11:16:30.039Z,47.60
2022-09-06T11:21:27.496Z,49.00
2022-09-06T11:26:30.462Z,50.00
2022-09-06T11:31:05.905Z,51.10
2022-09-06T11:35:42.447Z,51.90
2022-09-06T11:40:26.906Z,52.60
2022-09-06T11:45:21.448Z,53.30
2022-09-06T11:49:55.416Z,54.00
2022-09-06T11:54:39.633Z,54.70
2022-09-06T11:59:30.557Z,55.30
2022-09-06T12:04:08.244Z,55.70
2022-09-06T12:08:43.630Z,55.90
2022-09-06T12:13:51.007Z,55.80
2022-09-06T12:19:00.160Z,55.70
2022-09-06T12:23:44.343Z,55.40
2022-09-06T12:28:25.965Z,55.30
2022-09-06T12:33:01.343Z,55.00
2022-09-06T12:37:39.130Z,54.30
2022-09-06T12:42:15.096Z,53.60
2022-09-06T12:46:51.574Z,53.00
2022-09-06T12:51:26.394Z,53.90
2022-09-06T12:56:09.559Z,53.80
2022-09-06T13:00:45.776Z,54.40
2022-09-06T13:05:19.915Z,55.30
2022-09-06T13:09:57.622Z,55.90
2022-09-06T13:14:35.115Z,56.40
2022-09-06T13:19:13.725Z,57.10
2022-09-06T13:23:50.392Z,56.80
2022-09-06T13:28:30.158Z,54.80
2022-09-06T13:33:07.680Z,54.00
2022-09-06T13:37:41.826Z,53.60
2022-09-06T13:42:27.408Z,54.00
2022-09-06T13:47:02.127Z,54.10
2022-09-06T13:51:39.820Z,54.10
2022-09-06T13:56:13.754Z,53.70
2022-09-06T14:00:47.934Z,53.50
2022-09-06T14:05:21.992Z,53.90
2022-09-06T14:09:57.397Z,54.00
2022-09-06T14:14:31.458Z,54.60
2022-09-06T14:19:06.138Z,55.30
2022-09-06T14:23:40.347Z,55.70
2022-09-06T14:28:16.208Z,55.80
2022-09-06T14:32:50.240Z,56.80
2022-09-06T14:37:24.195Z,57.60
2022-09-06T14:41:58.242Z,58.50
2022-09-06T14:46:33.981Z,58.50
2022-09-06T14:51:13.531Z,58.30
2022-09-06T14:55:47.720Z,57.70
2022-09-06T15:00:22.770Z,57.70
2022-09-06T15:04:58.685Z,57.90
2022-09-06T15:09:32.858Z,58.20
2022-09-06T15:14:09.145Z,58.20
2022-09-06T15:18:43.315Z,58.40
2022-09-06T15:23:25.203Z,58.80
2022-09-06T15:27:59.736Z,59.00
2022-09-06T15:32:33.834Z,60.00
2022-09-06T15:37:07.875Z,61.00
2022-09-06T15:41:43.346Z,62.70
2022-09-06T15:46:21.135Z,63.80
2022-09-06T15:50:55.654Z,64.80
2022-09-06T15:55:49.420Z,65.90
2022-09-06T16:00:24.935Z,66.70
2022-09-06T16:04:59.419Z,67.00
2022-09-06T16:09:33.480Z,67.40
2022-09-06T16:14:10.589Z,67.90
2022-09-06T16:18:47.889Z,68.30
2022-09-06T16:23:22.051Z,68.90
2022-09-06T16:27:56.138Z,69.00
2022-09-06T16:32:30.242Z,68.40
2022-09-06T16:37:07.994Z,67.00
2022-09-06T16:41:45.078Z,67.00
2022-09-06T16:46:19.918Z,66.70
2022-09-06T16:51:15.893Z,66.50
2022-09-06T16:56:13.095Z,67.30
2022-09-06T17:01:08.378Z,67.70
2022-09-06T17:05:22.259Z,67.80
2022-09-06T17:09:37.499Z,68.50
2022-09-06T17:13:53.588Z,67.50
2022-09-06T17:18:08.240Z,67.40
2022-09-06T17:22:22.355Z,67.50
2022-09-06T17:26:38.108Z,68.10
2022-09-06T17:30:53.984Z,68.60
2022-09-06T17:35:08.512Z,69.00
2022-09-06T17:39:22.623Z,69.50
2022-09-06T17:43:37.629Z,69.90
2022-09-06T17:47:53.894Z,70.70
2022-09-06T17:52:07.831Z,71.30
2022-09-06T17:56:22.701Z,71.80
2022-09-06T18:00:39.639Z,72.50
2022-09-06T18:04:54.969Z,73.10
2022-09-06T18:09:10.966Z,73.30
2022-09-06T18:13:24.866Z,73.70
2022-09-06T18:17:38.958Z,74.20
2022-09-06T18:21:55.045Z,74.60
2022-09-06T18:26:09.708Z,75.50
2022-09-06T18:30:23.549Z,76.10
2022-09-06T18:34:37.484Z,76.90
2022-09-06T18:38:52.730Z,79.00
2022-09-06T18:43:06.594Z,79.60
2022-09-06T18:47:20.421Z,80.00
2022-09-06T18:51:35.052Z,80.60
2022-09-06T18:55:52.679Z,81.20
2022-09-06T19:00:08.062Z,81.40
2022-09-06T19:04:22.458Z,81.50
2022-09-06T19:08:36.509Z,81.30
2022-09-06T19:12:53.329Z,80.90
2022-09-06T19:17:07.494Z,80.40
2022-09-06T19:21:22.450Z,80.20
2022-09-06T19:25:36.327Z,79.90
2022-09-06T19:29:51.537Z,79.80
2022-09-06T19:34:06.304Z,79.80
2022-09-06T19:38:21.753Z,80.10
2022-09-06T19:42:36.067Z,80.40
2022-09-06T19:46:51.557Z,80.60
2022-09-06T19:51:08.087Z,81.20
2022-09-06T19:55:21.867Z,82.10
2022-09-06T19:59:36.591Z,82.70
2022-09-06T20:03:51.973Z,83.10
2022-09-06T20:08:06.340Z,83.70
2022-09-06T20:12:20.658Z,84.20
2022-09-06T20:16:37.101Z,84.60
2022-09-06T20:20:59.338Z,85.00
2022-09-06T20:25:13.872Z,85.10
2022-09-06T20:29:27.686Z,85.70
2022-09-06T20:33:43.745Z,86.80
2022-09-06T20:38:02.296Z,87.40
2022-09-06T20:42:16.316Z,88.00
2022-09-06T20:46:32.161Z,88.70
2022-09-06T20:50:46.148Z,88.70
2022-09-06T20:55:01.365Z,88.60
2022-09-06T20:59:15.453Z,89.20
2022-09-06T21:03:29.280Z,89.40
2022-09-06T21:07:43.096Z,89.70
2022-09-06T21:11:59.104Z,90.00
2022-09-06T21:16:13.134Z,90.40
2022-09-06T21:20:26.955Z,90.60
2022-09-06T21:24:40.974Z,90.70
2022-09-06T21:28:56.365Z,90.80
2022-09-06T21:33:10.176Z,91.10
2022-09-06T21:37:24.031Z,91.30
2022-09-06T21:41:38.877Z,91.50
2022-09-06T21:45:54.135Z,91.70
2022-09-06T21:50:08.960Z,91.70
2022-09-06T21:54:23.744Z,91.90
2022-09-06T21:58:37.701Z,91.90
2022-09-06T22:02:52.945Z,92.10
2022-09-06T22:07:06.874Z,92.20
2022-09-06T22:11:22.676Z,92.50
2022-09-06T22:15:38.649Z,92.30
2022-09-06T22:19:54.013Z,92.50
2022-09-06T22:24:09.661Z,92.60
2022-09-06T22:28:23.550Z,92.80
2022-09-06T22:32:37.878Z,92.90
2022-09-06T22:36:53.068Z,93.00
2022-09-06T22:41:07.167Z,93.30
2022-09-06T22:45:21.117Z,93.80
2022-09-06T22:49:35.304Z,93.70
2022-09-06T22:53:50.583Z,93.80
2022-09-06T22:58:05.376Z,94.00
2022-09-06T23:02:19.212Z,94.10
2022-09-06T23:06:33.093Z,94.20
2022-09-06T23:10:48.420Z,94.40
2022-09-06T23:15:02.257Z,94.40
2022-09-06T23:19:16.271Z,94.50
2022-09-06T23:23:31.655Z,94.60
2022-09-06T23:27:47.529Z,94.70
2022-09-06T23:32:01.453Z,94.60
2022-09-06T23:36:15.778Z,94.70
2022-09-06T23:40:29.587Z,94.80
2022-09-06T23:44:44.811Z,95.00
2022-09-06T23:48:58.815Z,95.10
2022-09-06T23:53:15.162Z,95.10
2022-09-06T23:57:28.938Z,95.20
